Nearby METAR Reports

 

KVTA - Newark, Ohio, USA
Distance from station: SE 2mi, 3km
Updated: 02/29/2024 1:54pm
NOT Current
Clear
Clear
 Wind from WNW
Wind: WNW 12 mph , 19 km/h, Gust: 18 mph , 30 km/h
Temperature: 37°F , 3°C
Wind Chill: 29°F , -2°C
Dew Point: 10°F , -12°C
Humidity: 33%
Barometer: 30.45 inHg , 1031.2 hPa
Clouds: Clear
Visibility: 10 miles , 16 km
2024/02/29 18:54 KVTA 291854Z AUTO 29010G16KT 10SM CLR 03/M12 A3045 RMK AO2 SLP322 T00331117
K4I3 - Mt Vernon/Knox, Ohio, USA
Distance from station: N 21mi, 33km
Updated: 03/02/2024 8:55pm
Overcast
Overcast
 Wind from calm
Wind: Calm
Temperature: 45°F , 7°C
Dew Point: 43°F , 6°C
Humidity: 93%
Barometer: 30.15 inHg , 1021 hPa
Clouds: Overcast
Visibility: 10 miles , 16 km
Cloud details: Overcast 3200 ft
2024/03/03 01:55 K4I3 030155Z AUTO 00000KT 10SM OVC032 07/06 A3015 RMK AO2
 
KCMH - Columbus, Ohio, USA
Distance from station: W 21mi, 34km
Updated: 03/02/2024 8:51pm
Overcast
Overcast
 Wind from SE
Wind: SE 3 mph , 6 km/h
Temperature: 48°F , 9°C
Dew Point: 45°F , 7°C
Humidity: 87%
Barometer: 30.14 inHg , 1020.7 hPa
Clouds: Overcast
Visibility: 10 miles , 16 km
Cloud details: Mostly cloudy 2400 ft
Overcast 3800 ft
2024/03/03 01:51 KCMH 030151Z 13003KT 10SM BKN024 OVC038 09/07 A3014 RMK AO2 SLP209 T00890067 $
KLHQ - Lancaster, Ohio, USA
Distance from station: SSW 22mi, 36km
Updated: 03/02/2024 8:53pm
Overcast
Overcast
 Wind from calm
Wind: Calm
Temperature: 48°F , 9°C
Dew Point: 45°F , 7°C
Humidity: 87%
Barometer: 30.15 inHg , 1021 hPa
Clouds: Overcast
Visibility: 10 miles , 16 km
Cloud details: Overcast 3000 ft
2024/03/03 01:53 KLHQ 030153Z AUTO 00000KT 10SM OVC030 09/07 A3015 RMK AO2 SLP212 T00890067
 
KLCK - Rickenbacker Ang, Ohio, USA
Distance from station: SW 27mi, 44km
Updated: 03/02/2024 8:55pm
Overcast
Overcast
 Wind from calm
Wind: Calm
Temperature: 48°F , 9°C
Dew Point: 45°F , 7°C
Humidity: 87%
Barometer: 30.14 inHg , 1020.7 hPa
Clouds: Overcast
Visibility: 10 miles , 16 km
Cloud details: Mostly cloudy 1900 ft
Overcast 3300 ft
2024/03/03 01:55 KLCK 030155Z AUTO 00000KT 10SM BKN019 OVC033 09/07 A3014 RMK AO2 T00900070
KOSU - Columbus/St Univ, Ohio, USA
Distance from station: W 32mi, 51km
Updated: 03/02/2024 8:53pm
Overcast
Overcast
 Wind from calm
Wind: Calm
Temperature: 48°F , 9°C
Dew Point: 43°F , 6°C
Humidity: 82%
Barometer: 30.14 inHg , 1020.7 hPa
Clouds: Overcast
Visibility: 10 miles , 16 km
Cloud details: Overcast 3300 ft
2024/03/03 01:53 KOSU 030153Z 00000KT 10SM OVC033 09/06 A3014 RMK AO2 SLP208 T00940061
 
KZZV - Zanesville, Ohio, USA
Distance from station: E 32mi, 51km
Updated: 03/02/2024 8:53pm
Overcast
Overcast
 Wind from calm
Wind: Calm
Temperature: 48°F , 9°C
Dew Point: 45°F , 7°C
Humidity: 87%
Barometer: 30.15 inHg , 1021 hPa
Clouds: Overcast
Visibility: 10 miles , 16 km
Cloud details: Overcast 3500 ft
2024/03/03 01:53 KZZV 030153Z AUTO 00000KT 10SM OVC035 09/07 A3015 RMK AO2 SLP211 T00890072
KTZR - Columbus/Bolton, Ohio, USA
Distance from station: WSW 36mi, 57km
Updated: 03/02/2024 8:55pm
Overcast
Overcast
 Wind from calm
Wind: Calm
Temperature: 46°F , 8°C
Dew Point: 45°F , 7°C
Humidity: 93%
Barometer: 30.15 inHg , 1021 hPa
Clouds: Overcast
Visibility: 10 miles , 16 km
Cloud details: Overcast 3400 ft
2024/03/03 01:55 KTZR 030155Z AUTO 00000KT 10SM OVC034 08/07 A3015 RMK AO2 T00760066
 
KDLZ - Delaware, Ohio, USA
Distance from station: WNW 37mi, 60km
Updated: 03/02/2024 9:15pm
Overcast
Overcast
 Wind from calm
Wind: Calm
Temperature: 43°F , 6°C
Dew Point: 37°F , 3°C
Humidity: 81%
Barometer: 30.15 inHg , 1021 hPa
Clouds: Overcast
Visibility: 10 miles , 16 km
Cloud details: Partly cloudy 1800 ft
Overcast 3400 ft
2024/03/03 02:15 KDLZ 030215Z AUTO 00000KT 10SM SCT018 OVC034 06/03 A3015 R
KMRT - Marysville, Ohio, USA
Distance from station: WNW 47mi, 76km
Updated: 03/02/2024 8:55pm
Overcast
Overcast
 Wind from calm
Wind: Calm
Temperature: 45°F , 7°C
Dew Point: 43°F , 6°C
Humidity: 93%
Barometer: 30.15 inHg , 1021 hPa
Clouds: Overcast
Visibility: 10 miles , 16 km
Cloud details: Overcast 2000 ft
2024/03/03 01:55 KMRT 030155Z AUTO 00000KT 10SM OVC020 07/06 A3015 RMK AO2 T00650063
 
KMNN - Marion, Ohio, USA
Distance from station: NW 50mi, 81km
Updated: 03/02/2024 8:53pm
Overcast
Overcast
 Wind from S
Wind: S 5 mph , 7 km/h
Temperature: 46°F , 8°C
Wind Chill: 44°F , 7°C
Dew Point: 43°F , 6°C
Humidity: 87%
Barometer: 30.13 inHg , 1020.3 hPa
Clouds: Overcast
Visibility: 10 miles , 16 km
Cloud details: Overcast 3200 ft
2024/03/03 01:53 KMNN 030153Z AUTO 17004KT 10SM OVC032 08/06 A3013 RMK AO2 SLP210 T00780056